Time;durP1;ratioP1;P1;durP2;ratioP2;P2;SDS_P1;SDS_P2;PMS_P1;PMS_P2;Temp;Humidity;BMP_temperature;BMP_pressure;BME280_temperature;BME280_humidity;BME280_pressure;Samples;Min_cycle;Max_cycle;Signal;HPM_P1;HPM_P2
2023/04/06 00:01:16;;;;;;;35.70;22.57;;;4.50;99.90;;;;;;5052309;28;20198;-78
2023/04/06 00:03:43;;;;;;;33.27;21.37;;;4.60;99.90;;;;;;5053048;28;20491;-79
2023/04/06 00:06:10;;;;;;;36.97;22.67;;;4.60;99.90;;;;;;5052769;28;20221;-80
2023/04/06 00:08:37;;;;;;;33.13;19.90;;;4.60;99.90;;;;;;5052274;28;20210;-80
2023/04/06 00:11:03;;;;;;;35.67;20.53;;;4.60;99.90;;;;;;5052730;28;20240;-79
2023/04/06 00:13:30;;;;;;;40.60;22.23;;;4.60;99.90;;;;;;5059174;28;20578;-79
2023/04/06 00:15:59;;;;;;;34.47;20.37;;;4.70;99.90;;;;;;5071999;28;20225;-78
2023/04/06 00:18:26;;;;;;;37.43;20.97;;;4.70;99.90;;;;;;5065335;28;20206;-79
2023/04/06 00:20:53;;;;;;;31.00;18.87;;;4.80;99.90;;;;;;5052454;28;20202;-79
2023/04/06 00:23:20;;;;;;;32.03;21.93;;;4.80;99.90;;;;;;5052100;28;20292;-79
2023/04/06 00:25:47;;;;;;;32.60;20.20;;;4.90;99.90;;;;;;5052219;28;20289;-80
2023/04/06 00:28:14;;;;;;;30.80;19.10;;;4.90;99.90;;;;;;5052243;28;20226;-79
2023/04/06 00:30:41;;;;;;;29.60;19.67;;;5.00;99.90;;;;;;5051963;28;20516;-81
2023/04/06 00:33:09;;;;;;;29.20;19.00;;;5.10;99.90;;;;;;5051976;28;20206;-80
2023/04/06 00:35:36;;;;;;;30.00;18.77;;;5.10;99.90;;;;;;5052953;28;20202;-81
2023/04/06 00:38:03;;;;;;;27.50;17.93;;;5.20;99.90;;;;;;5051597;28;20321;-80
2023/04/06 00:40:30;;;;;;;28.63;17.40;;;5.20;99.90;;;;;;5056012;28;20204;-79
2023/04/06 00:42:57;;;;;;;29.27;18.53;;;5.30;99.90;;;;;;5073502;28;20201;-79
2023/04/06 00:45:24;;;;;;;22.33;15.80;;;5.40;99.90;;;;;;5073750;28;20293;-79
2023/04/06 00:47:51;;;;;;;27.13;17.20;;;5.40;99.90;;;;;;5065336;28;20222;-81
2023/04/06 00:50:20;;;;;;;27.33;17.00;;;5.50;99.90;;;;;;5052703;28;20607;-80
2023/04/06 00:52:47;;;;;;;25.87;16.03;;;5.50;99.90;;;;;;5053559;28;20285;-80
2023/04/06 00:55:14;;;;;;;25.53;17.47;;;5.60;99.90;;;;;;5052836;28;20209;-79
2023/04/06 00:57:41;;;;;;;23.90;16.33;;;5.60;99.90;;;;;;5051530;28;20692;-80
2023/04/06 01:00:09;;;;;;;25.80;16.53;;;5.70;99.90;;;;;;5052002;28;20217;-79
2023/04/06 01:02:36;;;;;;;23.37;15.43;;;5.70;99.90;;;;;;5051973;28;20209;-79
2023/04/06 01:05:04;;;;;;;22.67;15.93;;;5.70;99.90;;;;;;5051583;28;20198;-80
2023/04/06 01:07:32;;;;;;;24.43;15.37;;;5.80;99.90;;;;;;5052140;28;20198;-79
2023/04/06 01:09:59;;;;;;;20.90;15.60;;;5.80;99.90;;;;;;5051870;28;20281;-79
2023/04/06 01:12:26;;;;;;;21.13;15.27;;;5.80;99.90;;;;;;5053894;28;20692;-80
2023/04/06 01:14:53;;;;;;;23.97;15.57;;;5.80;99.90;;;;;;5051668;28;20204;-80
2023/04/06 01:17:20;;;;;;;21.13;14.30;;;5.90;99.90;;;;;;5051649;28;20309;-80
2023/04/06 01:19:49;;;;;;;20.23;13.00;;;5.90;99.90;;;;;;5051040;28;20599;-79
2023/04/06 01:22:18;;;;;;;21.77;15.30;;;5.90;99.90;;;;;;5051860;28;20206;-79
2023/04/06 01:24:45;;;;;;;20.93;14.27;;;5.80;99.90;;;;;;5051670;28;20204;-78
2023/04/06 01:27:13;;;;;;;22.50;14.97;;;5.80;99.90;;;;;;5051338;28;20202;-81
2023/04/06 01:29:41;;;;;;;18.60;13.53;;;5.90;99.90;;;;;;5051386;28;20220;-79
2023/04/06 01:32:08;;;;;;;20.00;13.97;;;5.90;99.90;;;;;;5050979;28;20208;-80
2023/04/06 01:34:35;;;;;;;18.87;13.80;;;5.90;99.90;;;;;;5067434;28;20232;-81
2023/04/06 01:37:02;;;;;;;19.57;14.20;;;5.80;99.90;;;;;;5063110;28;20218;-81
2023/04/06 01:39:31;;;;;;;20.47;13.97;;;5.90;99.90;;;;;;5051224;28;20264;-79
2023/04/06 01:41:58;;;;;;;21.83;13.53;;;5.90;99.90;;;;;;5090872;28;20197;-80
2023/04/06 01:44:25;;;;;;;20.10;13.10;;;5.80;99.90;;;;;;5091628;28;20207;-79
2023/04/06 01:46:52;;;;;;;18.23;13.27;;;5.90;99.90;;;;;;5052061;28;20297;-81
2023/04/06 01:49:19;;;;;;;23.40;14.70;;;5.90;99.90;;;;;;5051259;28;20226;-79
2023/04/06 01:51:46;;;;;;;19.43;13.33;;;5.80;99.90;;;;;;5051661;28;20229;-80
2023/04/06 01:54:13;;;;;;;19.97;13.93;;;5.80;99.90;;;;;;5051070;28;20275;-80
2023/04/06 01:56:42;;;;;;;21.77;13.30;;;5.90;99.90;;;;;;5052145;28;20226;-79
2023/04/06 01:59:08;;;;;;;19.97;13.10;;;5.90;99.90;;;;;;5051679;28;20511;-79
2023/04/06 02:01:35;;;;;;;21.90;13.87;;;5.80;99.90;;;;;;5050909;28;20268;-80
2023/04/06 02:04:02;;;;;;;20.80;12.77;;;5.80;99.90;;;;;;5054708;28;20289;-80
2023/04/06 02:06:30;;;;;;;18.13;12.37;;;5.90;99.90;;;;;;5054884;28;20213;-81
2023/04/06 02:08:56;;;;;;;18.50;11.60;;;5.90;99.90;;;;;;5054625;28;20229;-81
2023/04/06 02:11:23;;;;;;;21.73;12.27;;;5.90;99.90;;;;;;5055176;28;20198;-79
2023/04/06 02:13:52;;;;;;;16.90;12.10;;;5.90;99.90;;;;;;5054886;28;20210;-80
2023/04/06 02:16:19;;;;;;;14.07;10.53;;;5.90;99.90;;;;;;5054322;28;20229;-78
2023/04/06 02:18:46;;;;;;;17.40;11.27;;;5.90;99.90;;;;;;5054872;28;20281;-80
2023/04/06 02:21:13;;;;;;;18.47;11.17;;;5.90;99.90;;;;;;5054771;28;20621;-80
2023/04/06 02:23:39;;;;;;;16.90;11.60;;;6.00;99.90;;;;;;5054598;28;20571;-79
2023/04/06 02:26:06;;;;;;;16.37;10.73;;;6.00;99.90;;;;;;5054639;28;20602;-81
2023/04/06 02:28:33;;;;;;;13.63;10.07;;;6.00;99.90;;;;;;5054117;28;20277;-80
2023/04/06 02:31:02;;;;;;;13.23;9.83;;;6.00;99.90;;;;;;5054242;28;20308;-80
2023/04/06 02:33:29;;;;;;;13.20;9.77;;;6.10;99.90;;;;;;5054547;28;20197;-81
2023/04/06 02:35:56;;;;;;;16.30;10.17;;;6.10;99.90;;;;;;5054080;28;20713;-79
2023/04/06 02:38:23;;;;;;;15.93;10.57;;;6.10;99.90;;;;;;5054581;28;20906;-80
2023/04/06 02:40:49;;;;;;;14.07;9.77;;;6.20;99.90;;;;;;5054601;28;20202;-80
2023/04/06 02:43:17;;;;;;;11.10;8.73;;;6.10;99.90;;;;;;5053715;28;20186;-80
2023/04/06 02:45:44;;;;;;;15.87;10.40;;;6.20;99.90;;;;;;5054731;28;20233;-78
2023/04/06 02:48:12;;;;;;;14.57;9.43;;;6.30;99.90;;;;;;5054512;28;20232;-79
2023/04/06 02:50:39;;;;;;;14.03;9.37;;;6.30;99.90;;;;;;5053632;28;20281;-79
2023/04/06 02:53:06;;;;;;;15.13;9.80;;;6.30;99.90;;;;;;5059050;28;20205;-79
2023/04/06 02:55:33;;;;;;;12.40;9.37;;;6.30;99.90;;;;;;5074630;28;20225;-79
2023/04/06 02:57:59;;;;;;;13.40;9.30;;;6.30;99.90;;;;;;5072718;28;20221;-79
2023/04/06 03:00:26;;;;;;;16.90;9.97;;;6.30;99.90;;;;;;5073865;28;20671;-80
2023/04/06 03:02:53;;;;;;;14.27;9.77;;;6.30;99.90;;;;;;5074031;28;20232;-80
2023/04/06 03:05:22;;;;;;;16.97;10.43;;;6.40;99.90;;;;;;5066239;28;20238;-79
2023/04/06 03:07:49;;;;;;;17.63;10.40;;;6.40;99.90;;;;;;5053938;28;20324;-79
2023/04/06 03:10:16;;;;;;;13.80;9.40;;;6.40;99.90;;;;;;5053298;28;20228;-78
2023/04/06 03:12:43;;;;;;;14.03;9.80;;;6.40;99.90;;;;;;5053566;28;20210;-80
2023/04/06 03:15:11;;;;;;;14.77;10.17;;;6.40;99.90;;;;;;5052895;28;20221;-80
2023/04/06 03:17:38;;;;;;;14.90;9.43;;;6.40;99.90;;;;;;5054016;28;20225;-80
2023/04/06 03:20:06;;;;;;;19.27;11.13;;;6.40;99.90;;;;;;5053998;28;20286;-79
2023/04/06 03:22:34;;;;;;;15.00;10.10;;;6.40;99.90;;;;;;5053847;28;20270;-80
2023/04/06 03:25:01;;;;;;;13.67;10.40;;;6.40;99.90;;;;;;5053193;28;20237;-80
2023/04/06 03:27:28;;;;;;;12.67;9.63;;;6.40;99.90;;;;;;5053876;28;20652;-80
2023/04/06 03:29:55;;;;;;;13.20;9.73;;;6.40;99.90;;;;;;5054015;28;20284;-80
2023/04/06 03:32:22;;;;;;;12.93;9.20;;;6.40;99.90;;;;;;5053104;28;20595;-79
2023/04/06 03:34:50;;;;;;;15.40;9.50;;;6.40;99.90;;;;;;5053486;28;20193;-81
2023/04/06 03:37:16;;;;;;;13.97;9.63;;;6.30;99.90;;;;;;5053258;28;20224;-80
2023/04/06 03:39:45;;;;;;;17.57;11.00;;;6.30;99.90;;;;;;5052769;28;20287;-78
2023/04/06 03:42:15;;;;;;;17.90;10.33;;;6.40;99.90;;;;;;5053652;28;20492;-80
2023/04/06 03:44:41;;;;;;;14.87;9.93;;;6.30;99.90;;;;;;5053405;28;20245;-80
2023/04/06 03:47:08;;;;;;;15.70;10.43;;;6.30;99.90;;;;;;5052498;28;20308;-79
2023/04/06 03:49:35;;;;;;;14.90;10.30;;;6.30;99.90;;;;;;5053336;28;20210;-80
2023/04/06 03:52:02;;;;;;;15.00;10.33;;;6.30;99.90;;;;;;5052919;28;20256;-78
2023/04/06 03:54:29;;;;;;;13.77;9.97;;;6.30;99.90;;;;;;5052898;28;20908;-79
2023/04/06 03:56:57;;;;;;;17.17;11.17;;;6.30;99.90;;;;;;5052680;28;20726;-78
2023/04/06 03:59:24;;;;;;;14.97;11.17;;;6.30;99.90;;;;;;5063028;28;20296;-80
2023/04/06 04:01:51;;;;;;;17.47;11.10;;;6.30;99.90;;;;;;5072471;28;20231;-79
2023/04/06 04:04:18;;;;;;;14.20;10.43;;;6.30;99.90;;;;;;5073028;28;20197;-80
2023/04/06 04:06:45;;;;;;;15.13;10.90;;;6.30;99.90;;;;;;5071797;28;20190;-80
2023/04/06 04:09:12;;;;;;;12.03;9.40;;;6.30;99.90;;;;;;5058545;28;20205;-79
2023/04/06 04:11:39;;;;;;;14.73;10.53;;;6.30;99.90;;;;;;5052118;28;20194;-80
2023/04/06 04:14:07;;;;;;;15.50;10.70;;;6.30;99.90;;;;;;5051624;28;20530;-80
2023/04/06 04:16:34;;;;;;;13.60;10.40;;;6.30;99.90;;;;;;5052446;28;20202;-79
2023/04/06 04:19:01;;;;;;;14.97;10.53;;;6.30;99.90;;;;;;5053102;28;20241;-79
2023/04/06 04:21:31;;;;;;;17.50;10.57;;;6.30;99.90;;;;;;5052196;28;20194;-79
2023/04/06 04:23:58;;;;;;;15.73;10.93;;;6.30;99.90;;;;;;5052572;28;20590;-80
2023/04/06 04:26:24;;;;;;;16.17;10.93;;;6.30;99.90;;;;;;5057591;28;20274;-80
2023/04/06 04:28:51;;;;;;;17.80;11.80;;;6.20;99.90;;;;;;5071843;28;20201;-79
2023/04/06 04:31:22;;;;;;;16.07;11.63;;;6.20;99.90;;;;;;5072056;28;20216;-79
2023/04/06 04:33:49;;;;;;;15.77;10.80;;;6.20;99.90;;;;;;5072530;28;20585;-80
2023/04/06 04:36:16;;;;;;;15.83;10.87;;;6.20;99.90;;;;;;5071699;28;20205;-79
2023/04/06 04:38:43;;;;;;;15.27;10.87;;;6.10;99.90;;;;;;5070842;28;20264;-79
2023/04/06 04:41:09;;;;;;;16.40;11.23;;;6.10;99.90;;;;;;5072476;28;20217;-78
2023/04/06 04:43:36;;;;;;;14.43;10.47;;;6.20;99.90;;;;;;5071910;28;20322;-79
2023/04/06 04:46:04;;;;;;;15.57;11.07;;;6.20;99.90;;;;;;5054251;28;20296;-79
2023/04/06 04:48:32;;;;;;;15.13;10.73;;;6.20;99.90;;;;;;5052529;28;20209;-80
2023/04/06 04:50:59;;;;;;;16.10;10.50;;;6.20;99.90;;;;;;5051717;28;20197;-79
2023/04/06 04:53:26;;;;;;;20.93;12.10;;;6.20;99.90;;;;;;5052119;28;20206;-79
2023/04/06 04:55:53;;;;;;;18.03;12.00;;;6.20;99.90;;;;;;5052436;28;20255;-80
2023/04/06 04:58:20;;;;;;;15.90;12.07;;;6.20;99.90;;;;;;5051428;28;20210;-79
2023/04/06 05:00:47;;;;;;;19.13;11.83;;;6.20;99.90;;;;;;5051009;28;20685;-78
2023/04/06 05:03:23;;;;;;;18.80;12.53;;;6.20;99.90;;;;;;5051348;28;20194;-78
2023/04/06 05:05:52;;;;;;;18.73;11.10;;;6.20;99.90;;;;;;5051830;28;20288;-78
2023/04/06 05:08:19;;;;;;;18.90;12.67;;;6.20;99.90;;;;;;5052145;28;20213;-80
2023/04/06 05:10:46;;;;;;;21.40;12.50;;;6.30;99.90;;;;;;5051529;28;20285;-79
2023/04/06 05:13:13;;;;;;;17.83;12.50;;;6.20;99.90;;;;;;5067496;28;20296;-80
2023/04/06 05:15:40;;;;;;;19.60;13.07;;;6.30;99.90;;;;;;5072220;28;20677;-79
2023/04/06 05:18:07;;;;;;;16.93;12.40;;;6.30;99.90;;;;;;5071498;28;20248;-79
2023/04/06 05:20:34;;;;;;;16.47;11.77;;;6.30;99.90;;;;;;5071257;28;20211;-80
2023/04/06 05:23:02;;;;;;;23.27;13.70;;;6.30;99.90;;;;;;5051609;28;20281;-79
2023/04/06 05:25:29;;;;;;;22.10;13.77;;;6.30;99.90;;;;;;5050886;28;20202;-80
2023/04/06 05:27:56;;;;;;;20.27;13.40;;;6.30;99.90;;;;;;5051527;28;20788;-81
2023/04/06 05:30:23;;;;;;;21.47;14.13;;;6.40;99.90;;;;;;5051879;28;20289;-80
2023/04/06 05:32:50;;;;;;;19.47;13.93;;;6.30;99.90;;;;;;5051353;28;20588;-79
2023/04/06 05:35:18;;;;;;;21.10;14.13;;;6.30;99.90;;;;;;5051696;28;20741;-80
2023/04/06 05:37:44;;;;;;;20.73;13.43;;;6.40;99.90;;;;;;5053164;28;20218;-80
2023/04/06 05:40:13;;;;;;;21.43;13.43;;;6.30;99.90;;;;;;5055194;28;20586;-81
2023/04/06 05:42:40;;;;;;;20.33;13.47;;;6.40;99.90;;;;;;5055529;28;20218;-79
2023/04/06 05:45:08;;;;;;;22.07;14.60;;;6.40;99.90;;;;;;5055686;28;20194;-80
2023/04/06 05:47:35;;;;;;;21.87;14.17;;;6.40;99.90;;;;;;5069698;28;20664;-81
2023/04/06 05:50:02;;;;;;;22.57;14.50;;;6.40;99.90;;;;;;5075711;28;20733;-80
2023/04/06 05:52:29;;;;;;;21.57;13.93;;;6.50;99.90;;;;;;5055415;28;20232;-80
2023/04/06 05:54:56;;;;;;;24.73;13.90;;;6.50;99.90;;;;;;5055437;28;20293;-79
2023/04/06 05:57:24;;;;;;;18.97;13.80;;;6.60;99.90;;;;;;5055172;28;20234;-80
2023/04/06 05:59:51;;;;;;;20.93;14.07;;;6.60;99.90;;;;;;5054843;28;20669;-79
2023/04/06 06:02:18;;;;;;;22.70;14.97;;;6.60;99.90;;;;;;5057360;28;20616;-80
2023/04/06 06:04:45;;;;;;;23.50;15.17;;;6.70;99.90;;;;;;5066749;28;20205;-80
2023/04/06 06:07:12;;;;;;;21.37;14.20;;;6.70;99.90;;;;;;5071281;28;20197;-80
2023/04/06 06:09:39;;;;;;;21.43;15.00;;;6.70;99.90;;;;;;5066200;28;20202;-76
2023/04/06 06:12:07;;;;;;;21.40;14.80;;;6.80;99.90;;;;;;5054673;28;20256;-80
2023/04/06 06:14:35;;;;;;;19.97;14.13;;;6.80;99.90;;;;;;5050388;28;20266;-78
2023/04/06 06:17:02;;;;;;;21.63;14.37;;;6.80;99.90;;;;;;5073110;28;20217;-79
2023/04/06 06:19:29;;;;;;;22.10;15.67;;;6.80;99.90;;;;;;5055545;28;20317;-80
2023/04/06 06:21:56;;;;;;;21.30;15.67;;;6.80;99.90;;;;;;5064453;28;20556;-78
2023/04/06 06:24:23;;;;;;;27.60;15.03;;;6.80;99.90;;;;;;5072041;28;20544;-80
2023/04/06 06:26:50;;;;;;;20.40;14.97;;;6.90;99.90;;;;;;5065023;28;20239;-80
2023/04/06 06:33:03;;;;;;;24.57;16.07;;;6.90;99.90;;;;;;4958706;28;20533;-78
2023/04/06 06:35:30;;;;;;;24.73;16.10;;;6.90;99.90;;;;;;5067564;28;20271;-81
2023/04/06 06:37:56;;;;;;;29.37;17.87;;;7.00;99.90;;;;;;5061476;28;20344;-79
2023/04/06 06:40:25;;;;;;;22.87;16.00;;;6.90;99.90;;;;;;5062195;28;20663;-80
2023/04/06 06:42:52;;;;;;;26.37;16.27;;;7.00;99.90;;;;;;5062339;28;20237;-81
2023/04/06 06:45:20;;;;;;;23.83;16.60;;;7.00;99.90;;;;;;5074315;28;20595;-80
2023/04/06 06:47:47;;;;;;;26.30;17.17;;;7.00;99.90;;;;;;5074289;28;20220;-80
2023/04/06 06:50:15;;;;;;;22.67;16.47;;;7.00;99.90;;;;;;5065724;28;20245;-79
2023/04/06 06:52:42;;;;;;;26.77;18.77;;;7.00;99.90;;;;;;5054843;28;20277;-80
2023/04/06 06:55:10;;;;;;;27.67;17.30;;;7.10;99.90;;;;;;5054560;28;20226;-80
2023/04/06 06:57:38;;;;;;;22.63;15.63;;;7.10;99.90;;;;;;5054064;28;20198;-80
2023/04/06 07:00:07;;;;;;;26.67;18.63;;;7.10;99.90;;;;;;5056747;28;20606;-79
2023/04/06 07:02:36;;;;;;;23.50;16.77;;;7.20;99.90;;;;;;5061914;28;20197;-79
2023/04/06 07:05:03;;;;;;;26.80;18.00;;;7.10;99.90;;;;;;5064493;28;20591;-79
2023/04/06 07:07:33;;;;;;;25.03;18.03;;;7.10;99.90;;;;;;5061915;28;20672;-79
2023/04/06 07:10:00;;;;;;;25.10;17.63;;;7.20;99.90;;;;;;5066947;28;20494;-80
2023/04/06 07:12:27;;;;;;;29.30;18.77;;;7.20;99.90;;;;;;5064489;28;20201;-79
2023/04/06 07:14:55;;;;;;;27.17;18.83;;;7.20;99.90;;;;;;5062382;28;20206;-79
2023/04/06 07:17:21;;;;;;;38.73;19.27;;;7.30;99.90;;;;;;5063509;28;20662;-79
2023/04/06 07:19:48;;;;;;;26.77;18.50;;;7.30;99.90;;;;;;5061488;28;20309;-79
2023/04/06 07:22:15;;;;;;;29.13;18.33;;;7.30;99.90;;;;;;5069418;28;20217;-79
2023/04/06 07:24:44;;;;;;;32.63;20.27;;;7.40;99.90;;;;;;5073706;28;20224;-80
2023/04/06 07:27:11;;;;;;;32.27;21.20;;;7.40;99.90;;;;;;5073651;28;20288;-78
2023/04/06 07:29:38;;;;;;;30.80;19.93;;;7.40;99.90;;;;;;5067258;28;20294;-78
2023/04/06 07:32:05;;;;;;;33.13;22.30;;;7.50;99.90;;;;;;5053006;28;20214;-79
2023/04/06 07:34:33;;;;;;;30.47;20.83;;;7.60;99.90;;;;;;5078333;28;20224;-79
2023/04/06 07:37:00;;;;;;;34.63;23.07;;;7.60;99.90;;;;;;5059499;28;20284;-79
2023/04/06 07:39:27;;;;;;;38.73;23.33;;;7.70;99.90;;;;;;5052543;28;20325;-79
2023/04/06 07:41:56;;;;;;;37.63;23.90;;;7.70;99.90;;;;;;5053758;28;20220;-80
2023/04/06 07:44:23;;;;;;;31.83;23.27;;;7.80;99.90;;;;;;5060055;28;20279;-80
2023/04/06 07:46:50;;;;;;;31.80;22.67;;;7.90;99.90;;;;;;5092946;28;20211;-79
2023/04/06 07:49:17;;;;;;;39.30;23.93;;;8.00;99.90;;;;;;5093054;28;20216;-80
2023/04/06 07:51:44;;;;;;;38.33;23.47;;;8.00;99.90;;;;;;5071795;28;20224;-79
2023/04/06 07:54:10;;;;;;;34.50;23.60;;;8.10;99.90;;;;;;5072199;28;20197;-80
2023/04/06 07:56:37;;;;;;;37.63;23.77;;;8.20;99.90;;;;;;5073165;28;20276;-80
2023/04/06 07:59:06;;;;;;;33.87;23.03;;;8.30;99.90;;;;;;5072423;28;20305;-78
2023/04/06 08:01:33;;;;;;;29.00;21.80;;;8.30;99.90;;;;;;5068463;28;20193;-80
2023/04/06 08:04:01;;;;;;;36.60;22.80;;;8.40;99.90;;;;;;5053026;28;20198;-81
2023/04/06 08:06:29;;;;;;;32.50;21.33;;;8.50;99.90;;;;;;5052260;28;20755;-79
2023/04/06 08:08:56;;;;;;;31.00;22.20;;;8.60;99.90;;;;;;5053255;28;20198;-80
2023/04/06 08:11:23;;;;;;;33.50;22.93;;;8.70;99.90;;;;;;5053137;28;20204;-79
2023/04/06 08:13:50;;;;;;;29.43;21.37;;;8.70;99.90;;;;;;5053326;28;20213;-80
2023/04/06 08:16:19;;;;;;;30.50;22.03;;;8.80;99.90;;;;;;5053075;28;20222;-81
2023/04/06 08:18:46;;;;;;;33.50;22.37;;;8.80;99.90;;;;;;5060883;28;20224;-81
2023/04/06 08:21:13;;;;;;;30.93;21.83;;;8.80;99.90;;;;;;5072081;28;20225;-81
2023/04/06 08:23:40;;;;;;;29.50;21.43;;;8.90;99.90;;;;;;5053259;28;20211;-81
2023/04/06 08:26:07;;;;;;;31.23;21.40;;;8.90;99.90;;;;;;5053077;28;20568;-80
2023/04/06 08:28:35;;;;;;;30.27;22.10;;;9.00;99.90;;;;;;5052234;28;20198;-81
2023/04/06 08:31:05;;;;;;;31.83;23.13;;;9.00;99.90;;;;;;5052598;28;20267;-80
2023/04/06 08:33:35;;;;;;;28.67;21.80;;;9.10;99.90;;;;;;5053310;28;20201;-81
2023/04/06 08:36:08;;;;;;;31.03;21.73;;;9.10;99.90;;;;;;5052014;28;20217;-81
2023/04/06 08:38:35;;;;;;;30.43;20.90;;;9.10;99.90;;;;;;5052294;28;20230;-82
2023/04/06 08:41:08;;;;;;;30.43;21.90;;;9.20;99.90;;;;;;5061162;28;20265;-81
2023/04/06 08:43:41;;;;;;;26.63;20.13;;;9.20;99.90;;;;;;5075120;28;20200;-81
2023/04/06 08:46:09;;;;;;;31.93;21.37;;;9.20;99.90;;;;;;5073736;28;20203;-81
2023/04/06 08:48:39;;;;;;;32.57;21.33;;;9.30;99.90;;;;;;5071395;28;20223;-82
2023/04/06 08:51:06;;;;;;;33.33;21.57;;;9.30;99.90;;;;;;5059075;28;20210;-81
2023/04/06 08:53:33;;;;;;;33.10;22.10;;;9.30;99.90;;;;;;5051744;28;20534;-80
2023/04/06 08:56:01;;;;;;;26.87;20.47;;;9.30;99.90;;;;;;5052604;28;20288;-81
2023/04/06 08:58:35;;;;;;;30.07;21.27;;;9.30;99.90;;;;;;5053097;28;20217;-80
2023/04/06 09:01:02;;;;;;;28.00;20.10;;;9.40;99.90;;;;;;5053079;28;20214;-80
2023/04/06 09:03:32;;;;;;;30.40;20.23;;;9.50;99.90;;;;;;5051631;28;20284;-79
2023/04/06 09:06:00;;;;;;;28.73;20.23;;;9.50;99.90;;;;;;5052240;28;20194;-78
2023/04/06 09:08:27;;;;;;;28.00;20.77;;;9.50;99.90;;;;;;5052365;28;20618;-80
2023/04/06 09:10:54;;;;;;;27.33;21.43;;;9.60;99.90;;;;;;5052162;28;20288;-81
2023/04/06 09:13:21;;;;;;;32.20;20.50;;;9.60;99.90;;;;;;5054688;28;20293;-80
2023/04/06 09:15:58;;;;;;;28.37;20.93;;;9.60;99.90;;;;;;5056390;28;20561;-79
2023/04/06 09:18:30;;;;;;;28.57;19.90;;;9.60;99.90;;;;;;5055680;28;20248;-79
2023/04/06 09:21:03;;;;;;;28.53;20.67;;;9.60;99.90;;;;;;5065963;28;20216;-80
2023/04/06 09:23:31;;;;;;;31.50;21.17;;;9.60;99.90;;;;;;5075571;28;20205;-80
2023/04/06 09:26:08;;;;;;;29.13;21.17;;;9.60;99.90;;;;;;5069596;28;20259;-80
2023/04/06 09:28:46;;;;;;;28.67;20.83;;;9.60;99.90;;;;;;5055418;28;20225;-81
2023/04/06 09:31:14;;;;;;;31.20;21.57;;;9.60;99.90;;;;;;5091838;28;20283;-81
2023/04/06 09:33:43;;;;;;;32.53;20.87;;;9.60;99.90;;;;;;5070527;28;20232;-83
2023/04/06 09:36:13;;;;;;;30.37;22.17;;;9.60;99.90;;;;;;5069362;28;20500;-82
2023/04/06 09:38:53;;;;;;;29.27;22.47;;;9.60;99.90;;;;;;5075834;28;20233;-82
2023/04/06 09:41:23;;;;;;;30.20;21.60;;;9.60;99.90;;;;;;5076149;28;20204;-81
2023/04/06 09:43:51;;;;;;;37.20;24.37;;;9.60;99.90;;;;;;5081597;22;20221;-83
2023/04/06 09:46:21;;;;;;;32.80;21.43;;;9.60;99.90;;;;;;5075765;28;20219;-82
2023/04/06 09:48:49;;;;;;;31.93;22.27;;;9.60;99.90;;;;;;5089045;28;20299;-81
2023/04/06 09:51:20;;;;;;;30.63;21.63;;;9.70;99.90;;;;;;5096685;28;20284;-82
2023/04/06 09:53:52;;;;;;;33.47;22.07;;;9.70;99.90;;;;;;5081533;28;21022;-81
2023/04/06 09:56:24;;;;;;;33.60;22.53;;;9.70;99.90;;;;;;5075816;28;20556;-81
2023/04/06 09:58:56;;;;;;;29.87;21.33;;;9.80;99.90;;;;;;5075579;28;20217;-82
2023/04/06 10:01:26;;;;;;;26.23;19.93;;;9.80;99.90;;;;;;5076309;28;20197;-82
2023/04/06 10:03:57;;;;;;;27.83;20.43;;;9.90;99.90;;;;;;5075546;28;20211;-83
2023/04/06 10:06:29;;;;;;;25.53;18.93;;;9.90;99.90;;;;;;5074995;28;20206;-82
2023/04/06 10:08:57;;;;;;;22.97;15.63;;;9.90;99.90;;;;;;5075812;28;20280;-81
2023/04/06 10:11:25;;;;;;;21.13;15.97;;;10.00;99.90;;;;;;5086920;28;20238;-81
2023/04/06 10:13:52;;;;;;;23.77;15.40;;;10.00;99.90;;;;;;5095242;28;20283;-82
2023/04/06 10:16:19;;;;;;;19.70;15.23;;;10.00;99.90;;;;;;5095348;28;20188;-82
2023/04/06 10:18:50;;;;;;;19.17;13.30;;;10.10;99.90;;;;;;5082974;28;20312;-81
2023/04/06 10:21:21;;;;;;;19.20;13.00;;;9.90;99.90;;;;;;5089650;28;20277;-81
2023/04/06 10:23:53;;;;;;;18.17;12.60;;;9.90;99.90;;;;;;5095021;28;20362;-80
2023/04/06 10:26:21;;;;;;;15.47;11.43;;;9.90;99.90;;;;;;5094134;28;20204;-80
2023/04/06 10:28:49;;;;;;;16.90;11.20;;;9.90;99.90;;;;;;5094187;28;20607;-80
2023/04/06 10:31:24;;;;;;;15.37;10.60;;;9.90;99.90;;;;;;5095384;28;20662;-82
2023/04/06 10:33:55;;;;;;;13.57;9.10;;;9.90;99.90;;;;;;5093668;28;20708;-82
2023/04/06 10:36:26;;;;;;;11.03;8.67;;;9.90;99.90;;;;;;5096121;28;20195;-81
2023/04/06 10:38:58;;;;;;;12.73;9.47;;;9.90;99.90;;;;;;5096020;28;20612;-83
2023/04/06 10:41:32;;;;;;;15.20;10.20;;;9.90;99.90;;;;;;5077331;28;20213;-81
2023/04/06 10:44:00;;;;;;;15.83;9.80;;;9.90;99.90;;;;;;5075634;28;20265;-82
2023/04/06 10:46:29;;;;;;;14.67;10.13;;;9.90;99.90;;;;;;5075851;28;20198;-82
2023/04/06 10:48:56;;;;;;;13.37;9.50;;;9.80;99.90;;;;;;5074852;28;20229;-82
2023/04/06 10:51:28;;;;;;;12.40;9.00;;;9.80;99.90;;;;;;5075668;28;20193;-83
2023/04/06 10:53:58;;;;;;;14.27;9.67;;;9.80;99.90;;;;;;5076186;28;20281;-83
2023/04/06 10:56:27;;;;;;;17.77;10.07;;;9.80;99.90;;;;;;5075255;28;20224;-84
2023/04/06 10:58:56;;;;;;;17.40;10.83;;;9.80;99.90;;;;;;5075685;28;20299;-83
2023/04/06 11:01:26;;;;;;;13.80;9.90;;;9.80;99.90;;;;;;5074984;28;20202;-85
2023/04/06 11:03:54;;;;;;;13.67;9.90;;;9.90;99.90;;;;;;5075820;28;20212;-84
2023/04/06 11:06:22;;;;;;;13.07;9.60;;;9.90;99.90;;;;;;5075650;28;20647;-85
2023/04/06 11:08:50;;;;;;;11.30;8.57;;;9.90;99.90;;;;;;5075734;28;20194;-83
2023/04/06 11:11:19;;;;;;;11.63;8.23;;;10.00;99.90;;;;;;5085499;28;20232;-85
2023/04/06 11:13:48;;;;;;;12.17;8.67;;;10.00;99.90;;;;;;5086836;28;20262;-84
2023/04/06 11:16:16;;;;;;;12.33;8.90;;;10.00;99.90;;;;;;5080493;28;20212;-83
2023/04/06 11:18:51;;;;;;;14.60;9.67;;;10.00;99.90;;;;;;5077774;28;20203;-84
2023/04/06 11:21:19;;;;;;;13.43;9.10;;;9.90;99.90;;;;;;5090207;28;20535;-86
2023/04/06 11:23:46;;;;;;;11.73;9.40;;;9.80;99.90;;;;;;5086724;28;20279;-83
2023/04/06 11:26:14;;;;;;;12.00;9.63;;;9.80;99.90;;;;;;5083702;28;20193;-80
2023/04/06 11:28:42;;;;;;;13.20;9.53;;;9.70;99.90;;;;;;5078348;28;20284;-79
2023/04/06 11:31:10;;;;;;;16.10;9.93;;;9.80;99.90;;;;;;5078997;28;20197;-81
2023/04/06 11:33:38;;;;;;;12.73;9.43;;;9.80;99.90;;;;;;5078840;28;20193;-82
2023/04/06 11:36:05;;;;;;;12.17;9.47;;;9.80;99.90;;;;;;5082576;28;20201;-86
2023/04/06 11:38:32;;;;;;;13.97;9.77;;;9.80;99.90;;;;;;5078420;28;20318;-84
2023/04/06 11:40:59;;;;;;;11.70;10.07;;;9.70;99.90;;;;;;5086316;28;20216;-84
2023/04/06 11:43:30;;;;;;;12.93;10.40;;;9.60;99.90;;;;;;5088935;28;20204;-85
2023/04/06 11:46:06;;;;;;;13.23;10.30;;;9.60;99.90;;;;;;5094327;28;20195;-88
2023/04/06 11:48:33;;;;;;;12.80;10.43;;;9.60;99.90;;;;;;5088355;28;20299;-81
2023/04/06 11:51:01;;;;;;;11.43;10.00;;;9.60;99.90;;;;;;5079923;28;20241;-84
2023/04/06 11:53:29;;;;;;;12.93;10.50;;;9.60;99.90;;;;;;5086102;28;20279;-84
2023/04/06 11:55:55;;;;;;;11.03;9.33;;;9.60;99.90;;;;;;5083633;28;20220;-86
2023/04/06 11:58:23;;;;;;;13.87;9.17;;;9.60;99.90;;;;;;5090372;28;20227;-86
2023/04/06 12:00:50;;;;;;;11.37;9.47;;;9.50;99.90;;;;;;5094121;28;20303;-81
2023/04/06 12:03:18;;;;;;;10.67;8.93;;;9.60;99.90;;;;;;5080496;28;20204;-82
2023/04/06 12:05:45;;;;;;;11.83;10.13;;;9.60;99.90;;;;;;5072266;28;20292;-83
2023/04/06 12:08:12;;;;;;;12.60;9.80;;;9.60;99.90;;;;;;5086822;28;20201;-85
2023/04/06 12:10:39;;;;;;;12.07;9.37;;;9.60;99.90;;;;;;5082273;28;20250;-85
2023/04/06 12:13:06;;;;;;;11.73;9.57;;;9.50;99.90;;;;;;5077638;28;20290;-83
2023/04/06 12:15:33;;;;;;;12.87;10.23;;;9.50;99.90;;;;;;5074298;28;20200;-85
2023/04/06 12:18:00;;;;;;;13.03;10.00;;;9.50;99.90;;;;;;5081471;28;20192;-87
2023/04/06 12:20:28;;;;;;;12.23;9.80;;;9.50;99.90;;;;;;5093354;28;20219;-85
2023/04/06 12:22:55;;;;;;;12.07;10.33;;;9.50;99.90;;;;;;5092583;28;20612;-86
2023/04/06 12:25:22;;;;;;;12.87;9.53;;;9.50;99.90;;;;;;5093203;28;20287;-80
2023/04/06 12:27:49;;;;;;;12.03;10.10;;;9.40;99.90;;;;;;5081622;28;20197;-83
2023/04/06 12:30:17;;;;;;;13.83;10.70;;;9.50;99.90;;;;;;5085465;28;20201;-81
2023/04/06 12:32:44;;;;;;;11.47;10.27;;;9.40;99.90;;;;;;5081277;28;20566;-82
2023/04/06 12:35:11;;;;;;;14.87;11.43;;;9.40;99.90;;;;;;5078233;28;20252;-82
2023/04/06 12:37:40;;;;;;;13.87;10.57;;;9.30;99.90;;;;;;5074729;28;20199;-83
2023/04/06 12:40:10;;;;;;;14.77;11.23;;;9.40;99.90;;;;;;5078512;28;20301;-85
2023/04/06 12:42:37;;;;;;;16.90;12.00;;;9.30;99.90;;;;;;5081616;28;20212;-86
2023/04/06 12:45:05;;;;;;;13.67;11.50;;;9.20;99.90;;;;;;5082089;28;20232;-83